Terminal Aerodrome Forecast
Issued by NWS

Home | Current Version | Previous Version | Text Only | Print | Product List | Glossary Off
Versions: 1 2 3 4 5 6 7 8 9 10 11 12 13 14 15 16 17 18 19 20 21 22 23 24 25 26

261
FTUS43 KBIS 270648 AAA
TAFJMS
TAF AMD
KJMS 270648Z 2707/2806 02006KT P6SM BKN007 BKN070
     FM271200 01004KT P6SM SCT005 BKN035
     FM271700 02010KT P6SM SCT050
     FM280200 02006KT P6SM SKC=

USA.gov is the U.S. government's official web portal to all federal, state and local government web resources and services.